Аэропорт: Кадала. Чита

ICAO: UIAA

METAR:
2018/11/19 10:00
UIAA 191000Z 23004MPS 9999 NSC M14/M20 Q1018 R29/CLRD70 NOSIG RMK QFE704/0939
METAR:
2018/11/19 09:21
TAF UIAA 190800Z 1909/2009 29005G10MPS 9999 SCT030CB 
      TEMPO 1912/1924 21003MPS -SHSN BKN014CB